createdAt,value
2022-11-24T00:00:09.904Z,0.00
2022-11-24T00:01:09.879Z,0.00
2022-11-24T00:02:11.231Z,0.00
2022-11-24T00:03:10.021Z,0.00
2022-11-24T00:04:09.844Z,0.00
2022-11-24T00:05:09.803Z,0.00
2022-11-24T00:06:09.852Z,0.00
2022-11-24T00:07:09.821Z,0.00
2022-11-24T00:08:10.027Z,0.00
2022-11-24T00:09:09.805Z,0.00
2022-11-24T00:10:09.786Z,0.00
2022-11-24T00:11:09.777Z,0.00
2022-11-24T00:12:09.759Z,0.00
2022-11-24T00:13:11.197Z,0.00
2022-11-24T00:14:09.688Z,0.00
2022-11-24T00:15:09.756Z,0.00
2022-11-24T00:16:09.671Z,0.00
2022-11-24T00:17:09.728Z,0.00
2022-11-24T00:18:09.643Z,0.00
2022-11-24T00:19:10.460Z,0.00
2022-11-24T00:20:09.637Z,0.00
2022-11-24T00:21:09.797Z,0.00
2022-11-24T00:22:09.680Z,0.00
2022-11-24T00:23:10.587Z,0.00
2022-11-24T00:24:09.573Z,0.00
2022-11-24T00:25:09.613Z,0.00
2022-11-24T00:26:09.595Z,0.00
2022-11-24T00:27:09.616Z,0.00
2022-11-24T00:28:09.530Z,0.00
2022-11-24T00:29:09.508Z,0.00
2022-11-24T00:30:09.488Z,0.00
2022-11-24T00:31:13.910Z,0.00
2022-11-24T00:32:10.566Z,0.00
2022-11-24T00:33:09.501Z,0.00
2022-11-24T00:34:09.472Z,0.00
2022-11-24T00:35:09.578Z,0.00
2022-11-24T00:36:09.445Z,0.00
2022-11-24T00:37:09.421Z,0.00
2022-11-24T00:38:09.537Z,0.00
2022-11-24T00:39:09.702Z,0.00
2022-11-24T00:40:09.357Z,0.00
2022-11-24T00:41:09.342Z,0.00
2022-11-24T00:42:09.485Z,0.00
2022-11-24T00:43:09.392Z,0.00
2022-11-24T00:44:09.371Z,0.00
2022-11-24T00:45:13.939Z,0.00
2022-11-24T00:46:10.401Z,0.00
2022-11-24T00:47:09.444Z,0.00
2022-11-24T00:48:09.772Z,0.00
2022-11-24T00:49:10.140Z,0.00
2022-11-24T00:50:10.041Z,0.00
2022-11-24T00:51:10.661Z,0.00
2022-11-24T00:52:09.356Z,0.00
2022-11-24T00:53:09.202Z,0.00
2022-11-24T00:54:09.220Z,0.00
2022-11-24T00:55:09.206Z,0.00
2022-11-24T00:56:09.194Z,0.00
2022-11-24T00:57:09.143Z,0.00
2022-11-24T00:58:09.122Z,0.00
2022-11-24T00:59:09.134Z,0.00
2022-11-24T01:00:09.131Z,0.00
2022-11-24T01:01:10.273Z,0.00
2022-11-24T01:02:09.149Z,0.00
2022-11-24T01:03:09.177Z,0.00
2022-11-24T01:04:09.092Z,0.00
2022-11-24T01:05:09.131Z,0.00
2022-11-24T01:06:09.050Z,0.00
2022-11-24T01:07:09.100Z,0.00
2022-11-24T01:08:09.011Z,0.00
2022-11-24T01:09:09.065Z,0.00
2022-11-24T01:10:09.451Z,0.00
2022-11-24T01:11:09.012Z,0.00
2022-11-24T01:12:08.952Z,0.00
2022-11-24T01:13:08.948Z,0.00
2022-11-24T01:14:09.008Z,0.00
2022-11-24T01:15:08.924Z,0.00
2022-11-24T01:16:08.934Z,0.00
2022-11-24T01:17:09.113Z,0.00
2022-11-24T01:18:08.873Z,0.00
2022-11-24T01:19:08.988Z,0.00
2022-11-24T01:20:08.842Z,0.00
2022-11-24T01:21:10.408Z,0.00
2022-11-24T01:22:08.833Z,0.00
2022-11-24T01:23:09.942Z,0.00
2022-11-24T01:24:08.808Z,0.00
2022-11-24T01:25:08.834Z,0.00
2022-11-24T01:26:08.773Z,0.00
2022-11-24T01:27:08.796Z,0.00
2022-11-24T01:28:08.737Z,0.00
2022-11-24T01:29:10.187Z,0.00
2022-11-24T01:30:09.695Z,0.00
2022-11-24T01:31:08.741Z,0.00
2022-11-24T01:32:08.967Z,0.00
2022-11-24T01:33:08.694Z,0.00
2022-11-24T01:34:08.687Z,0.00
2022-11-24T01:35:08.670Z,0.00
2022-11-24T01:36:08.716Z,0.00
2022-11-24T01:37:08.655Z,0.00
2022-11-24T01:38:08.635Z,0.00
2022-11-24T01:39:08.618Z,0.00
2022-11-24T01:40:08.615Z,0.00
2022-11-24T01:41:08.599Z,0.00
2022-11-24T01:42:08.648Z,0.00
2022-11-24T01:43:08.533Z,0.00
2022-11-24T01:44:08.557Z,0.00
2022-11-24T01:45:08.537Z,0.00
2022-11-24T01:46:08.552Z,0.00
2022-11-24T01:47:08.510Z,0.00
2022-11-24T01:48:08.576Z,0.00
2022-11-24T01:49:08.650Z,0.00
2022-11-24T01:50:08.851Z,0.00
2022-11-24T01:51:08.937Z,0.00
2022-11-24T01:52:08.528Z,0.00
2022-11-24T01:53:08.450Z,0.00
2022-11-24T01:54:08.410Z,0.00
2022-11-24T01:55:09.301Z,0.00
2022-11-24T01:56:08.984Z,0.00
2022-11-24T01:57:08.362Z,0.00
2022-11-24T01:58:08.356Z,0.00
2022-11-24T01:59:08.386Z,0.00
2022-11-24T02:00:08.342Z,0.00
2022-11-24T02:01:08.416Z,0.00
2022-11-24T02:02:08.735Z,0.00
2022-11-24T02:03:08.379Z,0.00
2022-11-24T02:04:08.295Z,0.00
2022-11-24T02:05:08.373Z,0.00
2022-11-24T02:06:08.291Z,0.00
2022-11-24T02:07:08.315Z,0.00
2022-11-24T02:08:08.318Z,0.00
2022-11-24T02:09:08.377Z,0.00
2022-11-24T02:10:08.209Z,0.00
2022-11-24T02:11:08.233Z,0.00
2022-11-24T02:12:08.205Z,0.00
2022-11-24T02:13:08.164Z,0.00
2022-11-24T02:14:08.223Z,0.00
2022-11-24T02:15:08.141Z,0.00
2022-11-24T02:16:08.190Z,0.00
2022-11-24T02:17:08.285Z,0.00
2022-11-24T02:18:08.141Z,0.00
2022-11-24T02:19:08.141Z,0.00
2022-11-24T02:20:08.107Z,0.00
2022-11-24T02:21:08.071Z,0.00
2022-11-24T02:22:08.073Z,0.00
2022-11-24T02:23:08.096Z,0.00
2022-11-24T02:24:08.032Z,0.00
2022-11-24T02:25:08.038Z,0.00
2022-11-24T02:26:08.035Z,0.00
2022-11-24T02:27:08.040Z,0.00
2022-11-24T02:28:07.992Z,0.00
2022-11-24T02:29:07.950Z,0.00
2022-11-24T02:30:07.984Z,0.00
2022-11-24T02:31:08.187Z,0.00
2022-11-24T02:32:07.939Z,0.00
2022-11-24T02:33:07.945Z,0.00
2022-11-24T02:34:08.043Z,0.00
2022-11-24T02:35:07.916Z,0.00
2022-11-24T02:36:07.885Z,0.00
2022-11-24T02:37:07.851Z,0.00
2022-11-24T02:38:07.948Z,0.00
2022-11-24T02:39:07.850Z,0.00
2022-11-24T02:40:07.801Z,0.00
2022-11-24T02:41:07.794Z,0.00
2022-11-24T02:42:07.872Z,0.00
2022-11-24T02:43:07.808Z,0.00
2022-11-24T02:44:07.754Z,0.00
2022-11-24T02:45:07.741Z,0.00
2022-11-24T02:46:07.769Z,0.00
2022-11-24T02:47:07.742Z,0.00
2022-11-24T02:48:07.714Z,0.00
2022-11-24T02:49:07.688Z,0.00
2022-11-24T02:50:07.696Z,0.00
2022-11-24T02:51:08.664Z,0.00
2022-11-24T02:52:08.414Z,0.00
2022-11-24T02:53:08.485Z,0.00
2022-11-24T02:54:07.634Z,0.00
2022-11-24T02:55:07.653Z,0.00
2022-11-24T02:56:07.633Z,0.00
2022-11-24T02:57:07.589Z,0.00
2022-11-24T02:58:07.668Z,0.00
2022-11-24T02:59:07.602Z,0.00
2022-11-24T03:00:07.557Z,0.00
2022-11-24T03:01:07.628Z,0.00
2022-11-24T03:02:07.545Z,0.00
2022-11-24T03:03:07.627Z,0.00
2022-11-24T03:04:07.547Z,0.00
2022-11-24T03:05:07.496Z,0.00
2022-11-24T03:06:07.504Z,0.00
2022-11-24T03:07:07.522Z,0.00
2022-11-24T03:08:07.446Z,0.00
2022-11-24T03:09:07.557Z,0.00
2022-11-24T03:10:07.492Z,0.00
2022-11-24T03:11:08.278Z,0.00
2022-11-24T03:12:08.187Z,0.00
2022-11-24T03:13:07.374Z,0.00
2022-11-24T03:14:07.396Z,0.00
2022-11-24T03:15:07.467Z,0.00
2022-11-24T03:16:07.487Z,0.00
2022-11-24T03:17:07.335Z,0.00
2022-11-24T03:18:07.322Z,0.00
2022-11-24T03:19:07.327Z,0.00
2022-11-24T03:20:07.500Z,0.00
2022-11-24T03:21:08.289Z,0.00
2022-11-24T03:22:07.307Z,0.00
2022-11-24T03:23:07.245Z,0.00
2022-11-24T03:24:07.429Z,0.00
2022-11-24T03:25:07.237Z,0.00
2022-11-24T03:26:07.219Z,0.00
2022-11-24T03:27:07.197Z,0.00
2022-11-24T03:28:07.193Z,0.00
2022-11-24T03:29:07.248Z,0.00
2022-11-24T03:30:07.200Z,0.00
2022-11-24T03:31:07.259Z,0.00
2022-11-24T03:32:07.161Z,0.00
2022-11-24T03:33:07.164Z,0.00
2022-11-24T03:34:07.151Z,0.00
2022-11-24T03:35:07.189Z,0.00
2022-11-24T03:36:07.090Z,0.00
2022-11-24T03:37:07.098Z,0.00
2022-11-24T03:38:07.083Z,0.00
2022-11-24T03:39:07.049Z,0.00
2022-11-24T03:40:07.127Z,0.00
2022-11-24T03:41:07.051Z,0.00
2022-11-24T03:42:07.001Z,0.00
2022-11-24T03:43:07.094Z,0.00
2022-11-24T03:44:07.030Z,0.00
2022-11-24T03:46:08.005Z,0.00
2022-11-24T03:47:06.962Z,0.00
2022-11-24T03:48:06.918Z,0.00
2022-11-24T03:49:06.911Z,0.00
2022-11-24T03:50:06.975Z,0.00
2022-11-24T03:51:06.962Z,0.00
2022-11-24T03:52:08.343Z,0.00
2022-11-24T03:53:06.920Z,0.00
2022-11-24T03:54:06.854Z,0.00
2022-11-24T03:55:06.836Z,0.00
2022-11-24T03:56:06.825Z,0.00
2022-11-24T03:57:06.833Z,0.00
2022-11-24T03:58:06.845Z,0.00
2022-11-24T03:59:06.921Z,0.00
2022-11-24T04:00:06.878Z,0.00
2022-11-24T04:01:06.794Z,0.00
2022-11-24T04:02:08.067Z,0.00
2022-11-24T04:03:07.928Z,0.00
2022-11-24T04:04:06.829Z,0.00
2022-11-24T04:05:06.748Z,0.00
2022-11-24T04:06:06.723Z,0.00
2022-11-24T04:07:07.152Z,0.00
2022-11-24T04:08:06.732Z,0.00
2022-11-24T04:09:06.760Z,0.00
2022-11-24T04:10:06.660Z,0.00
2022-11-24T04:11:06.687Z,0.00
2022-11-24T04:12:07.658Z,0.00
2022-11-24T04:13:06.706Z,0.00
2022-11-24T04:14:11.987Z,0.00
2022-11-24T04:15:07.634Z,0.00
2022-11-24T04:16:06.631Z,0.00
2022-11-24T04:17:06.634Z,0.00
2022-11-24T04:18:06.567Z,0.00
2022-11-24T04:19:06.589Z,0.00
2022-11-24T04:20:06.542Z,0.00
2022-11-24T04:21:06.528Z,0.00
2022-11-24T04:22:06.564Z,0.00
2022-11-24T04:23:06.592Z,0.00
2022-11-24T04:24:06.504Z,0.00
2022-11-24T04:25:06.478Z,0.00
2022-11-24T04:26:06.519Z,0.00
2022-11-24T04:27:06.592Z,0.00
2022-11-24T04:28:07.546Z,0.00
2022-11-24T04:29:06.494Z,0.00
2022-11-24T04:30:06.396Z,0.00
2022-11-24T04:31:06.547Z,0.00
2022-11-24T04:32:07.006Z,0.00
2022-11-24T04:33:06.364Z,0.00
2022-11-24T04:34:06.395Z,0.00
2022-11-24T04:35:06.756Z,0.00
2022-11-24T04:36:06.417Z,0.00
2022-11-24T04:37:06.320Z,0.00
2022-11-24T04:38:07.100Z,0.00
2022-11-24T04:39:19.865Z,0.00
2022-11-24T04:40:07.280Z,0.00
2022-11-24T04:41:06.503Z,0.00
2022-11-24T04:42:06.271Z,0.00
2022-11-24T04:43:06.218Z,0.00
2022-11-24T04:44:07.006Z,0.00
2022-11-24T04:45:06.208Z,0.00
2022-11-24T04:46:06.278Z,0.00
2022-11-24T04:47:06.233Z,0.00
2022-11-24T04:48:06.179Z,0.00
2022-11-24T04:49:06.258Z,0.00
2022-11-24T04:50:06.322Z,0.00
2022-11-24T04:51:06.142Z,0.00
2022-11-24T04:52:06.122Z,0.00
2022-11-24T04:53:06.183Z,0.00
2022-11-24T04:54:06.990Z,0.00
2022-11-24T04:55:06.069Z,0.00
2022-11-24T04:56:07.013Z,0.00
2022-11-24T04:57:06.050Z,0.00
2022-11-24T04:58:06.022Z,0.00
2022-11-24T04:59:08.366Z,0.00
2022-11-24T05:00:06.011Z,0.00
2022-11-24T05:01:06.312Z,0.00
2022-11-24T05:02:06.053Z,0.00
2022-11-24T05:03:06.013Z,0.00
2022-11-24T05:04:06.397Z,0.00
2022-11-24T05:05:05.929Z,0.00
2022-11-24T05:06:05.991Z,0.00
2022-11-24T05:07:06.022Z,0.00
2022-11-24T05:08:05.885Z,0.00
2022-11-24T05:09:05.869Z,0.00
2022-11-24T05:10:05.904Z,0.00
2022-11-24T05:11:05.879Z,0.00
2022-11-24T05:12:05.897Z,0.00
2022-11-24T05:13:05.815Z,0.00
2022-11-24T05:14:05.818Z,0.00
2022-11-24T05:15:05.955Z,0.00
2022-11-24T05:16:05.844Z,0.00
2022-11-24T05:17:06.348Z,0.00
2022-11-24T05:18:06.824Z,0.00
2022-11-24T05:19:09.327Z,0.00
2022-11-24T05:20:05.816Z,0.00
2022-11-24T05:21:05.842Z,0.00
2022-11-24T05:22:21.028Z,0.00
2022-11-24T05:23:05.848Z,0.00
2022-11-24T05:24:05.744Z,0.00
2022-11-24T05:25:05.979Z,0.00
2022-11-24T05:26:05.999Z,0.00
2022-11-24T05:27:05.669Z,0.00
2022-11-24T05:28:05.739Z,0.00
2022-11-24T05:29:06.792Z,0.00
2022-11-24T05:30:06.053Z,0.00
2022-11-24T05:31:05.761Z,0.00
2022-11-24T05:32:06.596Z,0.00
2022-11-24T05:33:05.737Z,0.00
2022-11-24T05:34:06.734Z,0.00
2022-11-24T05:35:05.833Z,0.00
2022-11-24T05:36:05.558Z,0.00
2022-11-24T05:37:06.551Z,0.00
2022-11-24T05:38:05.543Z,0.00
2022-11-24T05:39:06.430Z,0.00
2022-11-24T05:40:05.529Z,0.00
2022-11-24T05:41:05.455Z,0.00
2022-11-24T05:42:06.580Z,0.00
2022-11-24T05:43:05.445Z,0.00
2022-11-24T05:44:06.399Z,0.00
2022-11-24T05:45:06.390Z,0.00
2022-11-24T05:46:05.424Z,0.00
2022-11-24T05:47:05.626Z,0.00
2022-11-24T05:48:05.635Z,0.00
2022-11-24T05:49:05.358Z,0.00
2022-11-24T05:50:05.711Z,0.00
2022-11-24T05:51:09.245Z,0.00
2022-11-24T05:52:05.751Z,0.00
2022-11-24T05:53:05.831Z,0.00
2022-11-24T05:54:06.429Z,0.00
2022-11-24T05:55:05.729Z,0.00
2022-11-24T05:56:06.221Z,0.00
2022-11-24T05:57:05.342Z,0.00
2022-11-24T05:58:05.369Z,0.00
2022-11-24T05:59:09.607Z,0.00
2022-11-24T06:00:05.211Z,0.00
2022-11-24T06:01:05.553Z,0.00
2022-11-24T06:02:06.291Z,0.00
2022-11-24T06:03:05.955Z,0.00
2022-11-24T06:04:05.200Z,0.00
2022-11-24T06:05:05.900Z,0.00
2022-11-24T06:06:05.271Z,0.00
2022-11-24T06:07:06.095Z,0.00
2022-11-24T06:08:05.891Z,0.00
2022-11-24T06:09:05.570Z,0.00
2022-11-24T06:10:05.097Z,0.00
2022-11-24T06:11:05.052Z,0.00
2022-11-24T06:12:05.090Z,0.00
2022-11-24T06:13:06.211Z,0.00
2022-11-24T06:14:10.870Z,0.00
2022-11-24T06:15:06.091Z,0.00
2022-11-24T06:16:05.070Z,0.00
2022-11-24T06:17:05.770Z,0.00
2022-11-24T06:18:04.991Z,0.00
2022-11-24T06:19:13.753Z,0.00
2022-11-24T06:20:05.286Z,0.00
2022-11-24T06:21:12.304Z,4.00
2022-11-24T06:22:05.966Z,4.00
2022-11-24T06:23:05.107Z,0.00
2022-11-24T06:24:04.922Z,4.00
2022-11-24T06:25:05.202Z,4.00
2022-11-24T06:26:04.866Z,4.00
2022-11-24T06:27:04.937Z,8.00
2022-11-24T06:28:04.857Z,8.00
2022-11-24T06:29:04.833Z,8.00
2022-11-24T06:30:04.853Z,8.00
2022-11-24T06:31:04.863Z,12.00
2022-11-24T06:32:05.226Z,12.00
2022-11-24T06:33:04.906Z,16.00
2022-11-24T06:34:04.942Z,16.00
2022-11-24T06:35:04.765Z,20.00
2022-11-24T06:36:04.824Z,24.00
2022-11-24T06:37:04.768Z,24.00
2022-11-24T06:38:05.844Z,28.00
2022-11-24T06:39:05.323Z,32.00
2022-11-24T06:40:04.724Z,36.00
2022-11-24T06:41:04.676Z,40.00
2022-11-24T06:42:04.657Z,48.00
2022-11-24T06:43:04.656Z,56.00
2022-11-24T06:44:04.648Z,60.00
2022-11-24T06:45:08.725Z,64.00
2022-11-24T06:46:04.703Z,68.00
2022-11-24T06:47:04.628Z,76.00
2022-11-24T06:48:05.359Z,80.00
2022-11-24T06:49:04.987Z,88.00
2022-11-24T06:50:04.555Z,92.00
2022-11-24T06:51:04.606Z,100.00
2022-11-24T06:52:05.486Z,108.00
2022-11-24T06:53:04.527Z,112.00
2022-11-24T06:54:04.558Z,116.00
2022-11-24T06:55:04.694Z,128.00
2022-11-24T06:56:04.579Z,140.00
2022-11-24T06:57:04.503Z,152.00
2022-11-24T06:58:05.423Z,160.00
2022-11-24T06:59:04.466Z,176.00
2022-11-24T07:00:04.538Z,200.00
2022-11-24T07:01:04.962Z,220.00
2022-11-24T07:02:05.849Z,232.00
2022-11-24T07:03:04.475Z,240.00
2022-11-24T07:04:04.380Z,240.00
2022-11-24T07:05:04.391Z,248.00
2022-11-24T07:06:04.376Z,260.00
2022-11-24T07:07:05.581Z,276.00
2022-11-24T07:08:04.330Z,284.00
2022-11-24T07:09:04.354Z,284.00
2022-11-24T07:10:04.473Z,280.00
2022-11-24T07:11:04.292Z,288.00
2022-11-24T07:12:04.306Z,300.00
2022-11-24T07:13:05.539Z,320.00
2022-11-24T07:14:04.468Z,332.00
2022-11-24T07:15:04.283Z,352.00
2022-11-24T07:16:04.354Z,368.00
2022-11-24T07:17:04.767Z,388.00
2022-11-24T07:18:05.673Z,420.00
2022-11-24T07:19:04.203Z,472.00
2022-11-24T07:20:04.149Z,536.00
2022-11-24T07:21:04.619Z,604.00
2022-11-24T07:22:04.220Z,668.00
2022-11-24T07:23:04.182Z,732.00
2022-11-24T07:24:04.113Z,812.00
2022-11-24T07:25:04.104Z,896.00
2022-11-24T07:26:06.933Z,964.00
2022-11-24T07:27:04.790Z,992.00
2022-11-24T07:28:04.085Z,1020.00
2022-11-24T07:29:04.043Z,1044.00
2022-11-24T07:30:04.070Z,1036.00
2022-11-24T07:31:04.105Z,1020.00
2022-11-24T07:32:05.855Z,1036.00
2022-11-24T07:33:04.311Z,1096.00
2022-11-24T07:34:04.906Z,1164.00
2022-11-24T07:35:03.969Z,1216.00
2022-11-24T07:36:04.851Z,1216.00
2022-11-24T07:37:03.965Z,1208.00
2022-11-24T07:38:04.184Z,1232.00
2022-11-24T07:39:05.074Z,1240.00
2022-11-24T07:40:04.085Z,1252.00
2022-11-24T07:41:03.894Z,1260.00
2022-11-24T07:42:03.873Z,1236.00
2022-11-24T07:43:03.919Z,1236.00
2022-11-24T07:44:03.903Z,1260.00
2022-11-24T07:45:03.889Z,1276.00
2022-11-24T07:46:03.920Z,1272.00
2022-11-24T07:47:03.825Z,1292.00
2022-11-24T07:48:03.795Z,1356.00
2022-11-24T07:49:03.936Z,1468.00
2022-11-24T07:50:03.802Z,1572.00
2022-11-24T07:51:03.916Z,1616.00
2022-11-24T07:52:04.047Z,1712.00
2022-11-24T07:53:03.787Z,1792.00
2022-11-24T07:54:03.758Z,1828.00
2022-11-24T07:55:03.726Z,1864.00
2022-11-24T07:56:03.690Z,1884.00
2022-11-24T07:57:03.748Z,1892.00
2022-11-24T07:58:03.684Z,1924.00
2022-11-24T07:59:03.797Z,2044.00
2022-11-24T08:00:03.800Z,2236.00
2022-11-24T08:01:03.817Z,2320.00
2022-11-24T08:02:03.687Z,2276.00
2022-11-24T08:03:03.757Z,2200.00
2022-11-24T08:04:04.820Z,2180.00
2022-11-24T08:05:03.610Z,2172.00
2022-11-24T08:07:04.609Z,2140.00
2022-11-24T08:08:03.528Z,2244.00
2022-11-24T08:09:03.523Z,2348.00
2022-11-24T08:10:03.498Z,2372.00
2022-11-24T08:11:03.480Z,2256.00
2022-11-24T08:12:03.479Z,2216.00
2022-11-24T08:13:03.511Z,2176.00
2022-11-24T08:14:03.469Z,1996.00
2022-11-24T08:15:09.447Z,1936.00
2022-11-24T08:16:04.437Z,2000.00
2022-11-24T08:17:03.605Z,2036.00
2022-11-24T08:18:03.438Z,2100.00
2022-11-24T08:19:03.540Z,2112.00
2022-11-24T08:20:03.417Z,2016.00
2022-11-24T08:21:03.381Z,1896.00
2022-11-24T08:22:25.987Z,1680.00
2022-11-24T08:23:03.353Z,1316.00
2022-11-24T08:24:03.362Z,1096.00
2022-11-24T08:25:04.189Z,1008.00
2022-11-24T08:26:03.314Z,948.00
2022-11-24T08:27:03.496Z,896.00
2022-11-24T08:28:03.292Z,852.00
2022-11-24T08:29:03.308Z,880.00
2022-11-24T08:30:03.332Z,964.00
2022-11-24T08:31:03.271Z,1016.00
2022-11-24T08:32:03.398Z,1072.00
2022-11-24T08:33:03.242Z,1116.00
2022-11-24T08:34:03.253Z,1080.00
2022-11-24T08:35:14.941Z,988.00
2022-11-24T08:36:04.176Z,940.00
2022-11-24T08:37:03.280Z,908.00
2022-11-24T08:38:04.770Z,872.00
2022-11-24T08:39:03.142Z,888.00
2022-11-24T08:40:03.212Z,980.00
2022-11-24T08:41:03.103Z,1124.00
2022-11-24T08:42:03.256Z,1200.00
2022-11-24T08:43:03.543Z,1252.00
2022-11-24T08:44:03.083Z,1356.00
2022-11-24T08:45:18.838Z,1508.00
2022-11-24T08:46:04.059Z,1752.00
2022-11-24T08:47:03.030Z,2008.00
2022-11-24T08:48:03.147Z,2160.00
2022-11-24T08:49:03.027Z,2220.00
2022-11-24T08:50:03.046Z,2276.00
2022-11-24T08:51:03.036Z,2344.00
2022-11-24T08:52:02.981Z,2436.00
2022-11-24T08:53:02.962Z,2528.00
2022-11-24T08:54:03.029Z,2456.00
2022-11-24T08:55:03.922Z,2304.00
2022-11-24T08:56:02.973Z,2144.00
2022-11-24T08:57:02.915Z,2000.00
2022-11-24T08:58:02.946Z,1860.00
2022-11-24T08:59:02.976Z,1700.00
2022-11-24T09:00:02.850Z,1628.00
2022-11-24T09:01:02.920Z,1604.00
2022-11-24T09:02:02.998Z,1600.00
2022-11-24T09:03:02.848Z,1624.00
2022-11-24T09:04:02.959Z,1672.00
2022-11-24T09:05:02.798Z,1736.00
2022-11-24T09:06:02.979Z,1824.00
2022-11-24T09:07:02.788Z,1884.00
2022-11-24T09:08:02.858Z,1896.00
2022-11-24T09:09:02.848Z,1864.00
2022-11-24T09:10:02.733Z,1876.00
2022-11-24T09:11:02.695Z,1960.00
2022-11-24T09:12:02.726Z,2048.00
2022-11-24T09:13:03.232Z,2124.00
2022-11-24T09:14:02.722Z,2204.00
2022-11-24T09:15:02.721Z,2272.00
2022-11-24T09:16:02.688Z,2268.00
2022-11-24T09:17:02.758Z,2192.00
2022-11-24T09:18:03.767Z,2152.00
2022-11-24T09:19:02.671Z,2188.00
2022-11-24T09:20:03.570Z,2164.00
2022-11-24T09:21:03.048Z,2004.00
2022-11-24T09:22:02.707Z,1852.00
2022-11-24T09:23:02.593Z,1880.00
2022-11-24T09:24:02.602Z,2024.00
2022-11-24T09:25:02.562Z,2088.00
2022-11-24T09:26:02.722Z,1972.00
2022-11-24T09:27:02.529Z,1836.00
2022-11-24T09:28:02.510Z,1784.00
2022-11-24T09:29:02.621Z,1816.00
2022-11-24T09:30:02.507Z,1832.00
2022-11-24T09:31:02.565Z,1948.00
2022-11-24T09:32:06.795Z,2148.00
2022-11-24T09:33:02.457Z,2320.00
2022-11-24T09:34:02.421Z,2504.00
2022-11-24T09:35:02.393Z,2532.00
2022-11-24T09:36:02.381Z,2352.00
2022-11-24T09:37:02.365Z,2116.00
2022-11-24T09:38:02.405Z,1840.00
2022-11-24T09:39:02.344Z,1716.00
2022-11-24T09:40:03.249Z,1708.00
2022-11-24T09:41:02.310Z,1740.00
2022-11-24T09:42:02.304Z,1700.00
2022-11-24T09:43:02.296Z,1604.00
2022-11-24T09:44:02.384Z,1472.00
2022-11-24T09:45:02.262Z,1476.00
2022-11-24T09:46:05.792Z,1640.00
2022-11-24T09:47:02.366Z,1872.00
2022-11-24T09:48:02.272Z,2084.00
2022-11-24T09:49:02.210Z,2188.00
2022-11-24T09:50:02.241Z,2292.00
2022-11-24T09:51:02.233Z,2524.00
2022-11-24T09:52:02.177Z,2776.00
2022-11-24T09:53:02.170Z,2996.00
2022-11-24T09:54:02.152Z,3276.00
2022-11-24T09:55:02.395Z,3652.00
2022-11-24T09:56:02.189Z,4092.00
2022-11-24T09:57:02.095Z,4460.00
2022-11-24T09:58:02.095Z,4636.00
2022-11-24T09:59:02.144Z,4556.00
2022-11-24T10:00:02.127Z,4284.00
2022-11-24T10:01:02.134Z,4048.00
2022-11-24T10:02:02.260Z,3968.00
2022-11-24T10:03:02.027Z,4008.00
2022-11-24T10:04:06.279Z,4168.00
2022-11-24T10:05:02.140Z,4296.00
2022-11-24T10:06:01.988Z,4324.00
2022-11-24T10:07:03.145Z,4332.00
2022-11-24T10:08:01.972Z,4380.00
2022-11-24T10:09:02.359Z,4288.00
2022-11-24T10:10:02.069Z,4136.00
2022-11-24T10:11:01.977Z,4012.00
2022-11-24T10:12:01.912Z,3948.00
2022-11-24T10:13:01.906Z,4036.00
2022-11-24T10:14:01.888Z,4288.00
2022-11-24T10:15:01.978Z,4640.00
2022-11-24T10:16:01.971Z,4972.00
2022-11-24T10:17:01.857Z,5160.00
2022-11-24T10:18:01.882Z,5292.00
2022-11-24T10:19:01.830Z,5352.00
2022-11-24T10:20:01.899Z,5284.00
2022-11-24T10:21:02.833Z,5140.00
2022-11-24T10:22:01.808Z,5044.00
2022-11-24T10:23:01.792Z,5136.00
2022-11-24T10:24:02.158Z,5412.00
2022-11-24T10:25:01.879Z,5616.00
2022-11-24T10:26:01.735Z,5532.00
2022-11-24T10:27:01.764Z,5244.00
2022-11-24T10:28:01.751Z,4940.00
2022-11-24T10:29:01.749Z,4716.00
2022-11-24T10:30:01.849Z,4628.00
2022-11-24T10:31:01.776Z,4628.00
2022-11-24T10:32:02.798Z,4708.00
2022-11-24T10:33:02.704Z,4836.00
2022-11-24T10:34:01.627Z,4988.00
2022-11-24T10:35:01.809Z,5192.00
2022-11-24T10:36:01.626Z,5360.00
2022-11-24T10:37:02.839Z,5416.00
2022-11-24T10:38:01.576Z,5404.00
2022-11-24T10:39:01.582Z,5356.00
2022-11-24T10:40:01.562Z,5308.00
2022-11-24T10:41:01.620Z,5240.00
2022-11-24T10:42:01.553Z,5084.00
2022-11-24T10:43:01.518Z,4856.00
2022-11-24T10:44:01.524Z,4692.00
2022-11-24T10:45:01.492Z,4736.00
2022-11-24T10:46:01.558Z,4968.00
2022-11-24T10:47:01.474Z,5264.00
2022-11-24T10:48:01.553Z,5440.00
2022-11-24T10:49:01.474Z,5392.00
2022-11-24T10:50:01.453Z,5132.00
2022-11-24T10:51:01.419Z,4780.00
2022-11-24T10:52:01.570Z,4424.00
2022-11-24T10:53:01.439Z,4196.00
2022-11-24T10:54:01.369Z,4168.00
2022-11-24T10:55:01.369Z,4240.00
2022-11-24T10:56:01.339Z,4260.00
2022-11-24T10:57:01.345Z,4256.00
2022-11-24T10:58:01.335Z,4308.00
2022-11-24T10:59:01.287Z,4340.00
2022-11-24T11:00:01.338Z,4572.00
2022-11-24T11:01:01.374Z,4968.00
2022-11-24T11:02:01.412Z,5240.00
2022-11-24T11:03:01.304Z,5340.00
2022-11-24T11:04:01.258Z,5328.00
2022-11-24T11:05:01.291Z,5196.00
2022-11-24T11:06:01.318Z,5200.00
2022-11-24T11:07:01.191Z,5236.00
2022-11-24T11:08:05.455Z,5364.00
2022-11-24T11:09:01.242Z,5544.00
2022-11-24T11:10:01.182Z,5752.00
2022-11-24T11:11:01.181Z,5776.00
2022-11-24T11:12:10.027Z,5748.00
2022-11-24T11:13:02.152Z,5828.00
2022-11-24T11:14:04.308Z,5996.00
2022-11-24T11:15:02.258Z,6084.00
2022-11-24T11:16:01.079Z,6068.00
2022-11-24T11:17:01.179Z,5988.00
2022-11-24T11:18:01.230Z,5876.00
2022-11-24T11:19:01.053Z,5772.00
2022-11-24T11:20:02.531Z,5712.00
2022-11-24T11:21:01.043Z,5672.00
2022-11-24T11:22:01.006Z,5604.00
2022-11-24T11:23:00.980Z,5552.00
2022-11-24T11:24:00.978Z,5568.00
2022-11-24T11:25:01.013Z,5640.00
2022-11-24T11:26:00.963Z,5680.00
2022-11-24T11:27:00.950Z,5664.00
2022-11-24T11:28:04.192Z,5644.00
2022-11-24T11:31:19.728Z,5716.00
2022-11-24T11:34:04.597Z,5760.00
2022-11-24T11:35:00.818Z,5808.00
2022-11-24T11:36:00.877Z,5828.00
2022-11-24T11:37:00.805Z,5808.00
2022-11-24T11:38:01.588Z,5824.00
2022-11-24T11:39:00.839Z,5920.00
2022-11-24T11:40:00.783Z,6032.00
2022-11-24T11:41:00.788Z,6100.00
2022-11-24T11:42:00.729Z,6104.00
2022-11-24T11:43:02.747Z,6012.00
2022-11-24T11:44:00.726Z,5896.00
2022-11-24T11:45:00.682Z,5832.00
2022-11-24T11:46:00.901Z,5832.00
2022-11-24T11:47:00.852Z,5816.00
2022-11-24T11:48:00.647Z,5764.00
2022-11-24T11:49:02.098Z,5704.00
2022-11-24T11:50:00.763Z,5624.00
2022-11-24T11:51:22.400Z,5436.00
2022-11-24T11:52:01.613Z,5128.00
2022-11-24T11:53:00.618Z,4720.00
2022-11-24T11:54:00.663Z,4360.00
2022-11-24T11:55:00.569Z,3980.00
2022-11-24T11:56:00.576Z,3760.00
2022-11-24T11:57:00.571Z,3696.00
2022-11-24T11:58:00.538Z,3680.00
2022-11-24T11:59:00.523Z,3636.00
2022-11-24T12:00:00.488Z,3440.00
2022-11-24T12:01:00.483Z,3312.00
2022-11-24T12:02:00.517Z,3320.00
2022-11-24T12:03:00.576Z,3368.00
2022-11-24T12:04:00.619Z,3400.00
2022-11-24T12:05:00.498Z,3452.00
2022-11-24T12:06:00.413Z,3564.00
2022-11-24T12:07:00.430Z,3728.00
2022-11-24T12:08:04.911Z,3704.00
2022-11-24T12:09:19.852Z,3444.00
2022-11-24T12:10:01.362Z,3428.00
2022-11-24T12:11:00.354Z,3604.00
2022-11-24T12:12:00.328Z,3864.00
2022-11-24T12:13:00.324Z,4032.00
2022-11-24T12:14:00.373Z,3924.00
2022-11-24T12:15:01.759Z,3788.00
2022-11-24T12:16:00.479Z,3864.00
2022-11-24T12:17:00.263Z,4088.00
2022-11-24T12:18:00.271Z,4300.00
2022-11-24T12:19:00.288Z,4644.00
2022-11-24T12:20:00.230Z,4968.00
2022-11-24T12:21:00.312Z,4796.00
2022-11-24T12:22:00.200Z,4476.00
2022-11-24T12:23:00.194Z,4376.00
2022-11-24T12:24:00.206Z,4456.00
2022-11-24T12:25:00.267Z,4596.00
2022-11-24T12:26:00.144Z,4748.00
2022-11-24T12:27:00.181Z,4872.00
2022-11-24T12:28:00.116Z,4944.00
2022-11-24T12:29:00.181Z,5000.00
2022-11-24T12:30:00.114Z,5104.00
2022-11-24T12:31:00.164Z,5448.00
2022-11-24T12:32:00.085Z,5736.00
2022-11-24T12:33:00.121Z,5752.00
2022-11-24T12:34:01.523Z,5788.00
2022-11-24T12:35:00.047Z,5860.00
2022-11-24T12:36:00.017Z,5788.00
2022-11-24T12:37:01.087Z,5660.00
2022-11-24T12:38:00.011Z,5636.00
2022-11-24T12:38:59.968Z,5572.00
2022-11-24T12:40:00.002Z,5368.00
2022-11-24T12:41:25.414Z,5028.00
2022-11-24T12:42:00.987Z,4580.00
2022-11-24T12:42:59.972Z,4288.00
2022-11-24T12:43:59.912Z,4048.00
2022-11-24T12:44:59.948Z,3916.00
2022-11-24T12:45:59.899Z,3952.00
2022-11-24T12:46:59.933Z,3952.00
2022-11-24T12:47:59.882Z,3944.00
2022-11-24T12:48:59.870Z,4048.00